Time;durP1;ratioP1;P1;durP2;ratioP2;P2;SDS_P1;SDS_P2;PMS_P1;PMS_P2;Temp;Humidity;BMP_temperature;BMP_pressure;BME280_temperature;BME280_humidity;BME280_pressure;Samples;Min_cycle;Max_cycle;Signal;HPM_P1;HPM_P2
2021/03/15 03:40:00;;;;;;;333.10;319.60;;;5.40;99.90;;;;;;6137413;23;20511;-82
2021/03/15 03:45:05;;;;;;;339.60;325.57;;;5.50;99.90;;;;;;6136787;23;20456;-83
2021/03/15 03:47:32;;;;;;;338.30;324.50;;;5.50;99.90;;;;;;6186017;23;20401;-80
2021/03/15 03:49:58;;;;;;;348.60;332.97;;;5.50;99.90;;;;;;6185679;23;20432;-79
2021/03/15 03:56:13;;;;;;;352.33;336.03;;;5.60;99.90;;;;;;6017856;23;20413;-84
2021/03/15 04:39:22;;;;;;;368.53;351.93;;;5.70;99.90;;;;;;6127159;23;20458;-86
2021/03/15 04:42:34;;;;;;;;;;;;;;;;;;;;;
2021/03/15 05:26:29;;;;;;;232.67;222.20;;;5.40;99.90;;;;;;6179073;23;20446;-87
2021/03/15 06:06:01;;;;;;;288.30;274.80;;;5.00;99.90;;;;;;6106217;23;20888;-85
2021/03/15 06:15:50;;;;;;;306.10;292.27;;;5.20;99.90;;;;;;5910284;24;20429;-88
2021/03/15 06:24:53;;;;;;;319.23;304.17;;;5.20;99.90;;;;;;5948067;24;20420;-87
2021/03/15 06:28:07;;;;;;;345.83;330.30;;;5.10;99.90;;;;;;6145328;23;20414;-88
2021/03/15 06:31:14;;;;;;;358.87;343.17;;;5.20;99.90;;;;;;5991051;24;20844;-83
2021/03/15 06:33:54;;;;;;;322.90;307.27;;;5.20;99.90;;;;;;6166461;23;20497;-91
2021/03/15 06:36:38;;;;;;;;;;;;;;;;;;;;;
2021/03/15 06:39:32;;;;;;;303.63;289.60;;;5.20;99.90;;;;;;6161671;23;20409;-88
2021/03/15 06:47:59;;;;;;;320.87;307.13;;;5.20;99.90;;;;;;6150783;23;20410;-88
2021/03/15 06:50:26;;;;;;;307.63;293.67;;;5.30;99.90;;;;;;6156323;23;20566;-87
2021/03/15 06:52:57;;;;;;;320.03;305.43;;;5.40;99.90;;;;;;6166251;23;20485;-87
2021/03/15 06:55:25;;;;;;;323.10;308.83;;;5.40;99.90;;;;;;6166006;23;20416;-87
2021/03/15 06:57:52;;;;;;;290.53;276.97;;;5.40;99.90;;;;;;6156231;23;20894;-87
2021/03/15 07:00:20;;;;;;;291.47;278.17;;;5.40;99.90;;;;;;6156105;23;20954;-87
2021/03/15 07:02:57;;;;;;;266.03;253.53;;;5.50;99.90;;;;;;6165980;23;20454;-85
2021/03/15 07:05:23;;;;;;;230.40;220.07;;;5.60;99.90;;;;;;6166299;23;20414;-83
2021/03/15 07:07:54;;;;;;;256.27;244.47;;;5.60;99.90;;;;;;6166405;23;20418;-82
2021/03/15 07:10:26;;;;;;;259.53;247.07;;;5.60;99.90;;;;;;6154709;23;20453;-88
2021/03/15 07:13:10;;;;;;;263.73;251.83;;;5.50;99.90;;;;;;6156005;23;20457;-87
2021/03/15 07:15:36;;;;;;;259.60;247.77;;;5.60;99.90;;;;;;6155723;23;20433;-89
2021/03/15 07:18:15;;;;;;;237.20;225.87;;;5.80;99.90;;;;;;6165970;23;20418;-84
2021/03/15 07:20:44;;;;;;;232.73;221.73;;;5.60;99.90;;;;;;6155654;23;20871;-85
2021/03/15 07:23:11;;;;;;;250.53;238.40;;;5.70;99.90;;;;;;6164821;23;20402;-83
2021/03/15 07:25:40;;;;;;;236.60;225.70;;;5.90;99.90;;;;;;6155443;23;20410;-84
2021/03/15 07:28:08;;;;;;;179.07;170.93;;;5.80;99.90;;;;;;6165549;23;20416;-84
2021/03/15 07:30:38;;;;;;;162.47;154.80;;;5.80;99.90;;;;;;6165302;23;20422;-84
2021/03/15 07:33:07;;;;;;;138.00;131.40;;;5.80;99.90;;;;;;6155991;23;20402;-84
2021/03/15 07:35:36;;;;;;;141.30;134.37;;;5.70;99.90;;;;;;6155543;23;20914;-84
2021/03/15 07:38:04;;;;;;;153.47;145.77;;;5.70;99.90;;;;;;6164010;23;20811;-83
2021/03/15 07:40:37;;;;;;;169.83;161.50;;;5.70;99.90;;;;;;6155849;23;20894;-84
2021/03/15 07:43:05;;;;;;;186.60;177.60;;;5.80;99.90;;;;;;6155750;23;20402;-83
2021/03/15 07:45:39;;;;;;;191.67;182.07;;;5.90;99.90;;;;;;6156010;23;20541;-84
2021/03/15 07:48:14;;;;;;;163.50;155.57;;;6.10;99.90;;;;;;6165293;23;20743;-84
2021/03/15 07:50:44;;;;;;;141.67;134.57;;;6.00;99.90;;;;;;6155583;23;20454;-84
2021/03/15 07:53:37;;;;;;;141.50;134.43;;;6.10;99.90;;;;;;6154261;23;20437;-87
2021/03/15 07:56:19;;;;;;;126.73;120.33;;;6.00;99.90;;;;;;6165476;23;20410;-85
2021/03/15 08:02:36;;;;;;;149.47;142.00;;;6.00;99.90;;;;;;6151499;23;20480;-85
2021/03/15 08:05:05;;;;;;;138.10;131.33;;;6.20;99.90;;;;;;6143220;23;20437;-85
2021/03/15 08:07:34;;;;;;;100.20;95.33;;;6.40;99.90;;;;;;6165824;23;20402;-84
2021/03/15 08:13:24;;;;;;;112.80;107.07;;;6.60;99.90;;;;;;6136229;23;20418;-84
2021/03/15 08:16:08;;;;;;;73.60;69.40;;;6.90;99.90;;;;;;6155715;23;20398;-84
2021/03/15 08:18:46;;;;;;;39.37;36.10;;;7.00;99.90;;;;;;6165362;23;20989;-84
2021/03/15 08:24:56;;;;;;;24.10;16.87;;;6.70;99.90;;;;;;5975936;23;20415;-84
2021/03/15 08:31:13;;;;;;;31.50;28.43;;;6.60;99.90;;;;;;6162114;23;20744;-85
2021/03/15 08:37:52;;;;;;;;;;;;;;;;;;;;;
2021/03/15 08:47:16;;;;;;;22.33;10.97;;;7.50;99.90;;;;;;5877033;24;20915;-84
2021/03/15 08:50:20;;;;;;;24.50;13.60;;;7.40;99.90;;;;;;5943371;23;20449;-84
2021/03/15 08:53:09;;;;;;;17.23;11.03;;;7.10;99.90;;;;;;6071310;23;20458;-85
2021/03/15 08:59:15;;;;;;;;;;;;;;;;;;;;;
2021/03/15 09:02:03;;;;;;;25.93;16.00;;;6.60;99.90;;;;;;5987753;23;20530;-84
2021/03/15 09:05:15;;;;;;;25.83;13.57;;;6.60;99.90;;;;;;5980314;24;20784;-84
2021/03/15 09:21:00;;;;;;;23.93;11.03;;;7.70;95.70;;;;;;5990699;24;20454;-84
2021/03/15 09:24:03;;;;;;;32.53;11.57;;;7.20;89.30;;;;;;5978635;23;20431;-82
2021/03/15 09:26:47;;;;;;;34.87;11.23;;;7.20;88.20;;;;;;5990235;24;20411;-82
2021/03/15 09:29:26;;;;;;;18.73;9.33;;;7.20;90.70;;;;;;6107911;23;20414;-83
2021/03/15 09:32:33;;;;;;;17.60;7.17;;;7.30;86.60;;;;;;6167093;23;20483;-81
2021/03/15 09:35:35;;;;;;;18.83;7.77;;;7.40;86.40;;;;;;6156747;23;20484;-82
2021/03/15 09:38:29;;;;;;;28.30;8.93;;;7.70;79.00;;;;;;6146629;23;20424;-85
2021/03/15 09:41:23;;;;;;;24.83;7.67;;;7.60;90.50;;;;;;6155024;23;20436;-82
2021/03/15 09:44:01;;;;;;;25.60;8.30;;;7.50;90.70;;;;;;6165336;23;20414;-84
2021/03/15 10:49:48;;;;;;;21.10;5.60;;;7.70;43.10;;;;;;6148020;23;20976;-84
2021/03/15 10:52:35;;;;;;;18.80;4.30;;;5.40;99.90;;;;;;6164472;23;20744;-82
2021/03/15 10:58:39;;;;;;;51.37;48.77;;;4.90;99.90;;;;;;6082946;23;20532;-85
2021/03/15 11:01:12;;;;;;;112.30;107.70;;;5.10;99.90;;;;;;6163946;23;20433;-83
2021/03/15 11:03:40;;;;;;;72.83;69.70;;;5.20;99.90;;;;;;6164193;23;20416;-85
2021/03/15 11:06:29;;;;;;;92.60;89.10;;;5.60;99.90;;;;;;6162449;23;20403;-85
2021/03/15 11:09:06;;;;;;;59.10;56.33;;;6.40;99.90;;;;;;6117382;23;20414;-85
2021/03/15 11:11:38;;;;;;;12.93;11.83;;;7.20;99.90;;;;;;6153228;23;20402;-85
2021/03/15 11:14:34;;;;;;;10.03;6.73;;;6.90;99.90;;;;;;6163807;23;20434;-82
2021/03/15 11:17:09;;;;;;;21.97;20.10;;;6.50;99.90;;;;;;6052280;23;20476;-82
2021/03/15 11:19:58;;;;;;;12.70;8.83;;;7.10;99.90;;;;;;6153271;23;20425;-82
2021/03/15 11:22:53;;;;;;;16.07;4.47;;;7.50;99.90;;;;;;6162978;23;20476;-83
2021/03/15 11:25:37;;;;;;;17.67;4.93;;;7.60;99.90;;;;;;6144800;23;20418;-83
2021/03/15 11:28:17;;;;;;;14.10;4.53;;;7.80;99.90;;;;;;6164503;23;20402;-82
2021/03/15 11:30:51;;;;;;;18.10;4.33;;;7.70;99.90;;;;;;6163272;23;20414;-81
2021/03/15 11:33:23;;;;;;;15.37;6.70;;;7.70;99.90;;;;;;6153744;23;20398;-81
2021/03/15 11:35:53;;;;;;;12.97;3.37;;;7.80;99.90;;;;;;6163331;23;20925;-81
2021/03/15 11:38:42;;;;;;;12.00;3.87;;;8.20;99.90;;;;;;6162079;23;20429;-81
2021/03/15 11:49:18;;;;;;;;;;;;;;;;;;;;;
2021/03/15 11:59:39;;;;;;;;;;;;;;;;;;;;;
2021/03/15 13:01:32;;;;;;;11.90;3.03;;;9.00;45.30;;;;;;5704759;24;20429;-83
2021/03/15 13:03:59;;;;;;;14.50;4.27;;;8.80;60.90;;;;;;5847299;24;20512;-81
2021/03/15 13:06:28;;;;;;;12.97;2.90;;;8.40;66.50;;;;;;5982561;23;20465;-82
2021/03/15 13:09:02;;;;;;;11.13;3.53;;;8.50;42.90;;;;;;6134718;23;20410;-80
2021/03/15 13:53:58;;;;;;;;;;;;;;;;;;;;;
2021/03/15 14:23:22;;;;;;;;;;;;;;;;;;;;;
2021/03/15 14:44:16;;;;;;;56.10;51.60;;;10.20;29.20;;;;;;5835409;24;20177;-82
2021/03/15 15:09:24;;;;;;;12.27;3.90;;;8.70;35.80;;;;;;5751644;24;20425;-84
2021/03/15 15:11:51;;;;;;;12.93;5.07;;;8.10;53.20;;;;;;5866355;24;20609;-80
2021/03/15 15:14:25;;;;;;;34.80;21.47;;;7.20;99.90;;;;;;6038564;23;20472;-83
2021/03/15 15:16:51;;;;;;;10.60;3.60;;;6.60;99.90;;;;;;6078239;23;20416;-83
2021/03/15 15:19:19;;;;;;;13.60;5.20;;;6.80;99.90;;;;;;6068523;23;20405;-81
2021/03/15 15:21:46;;;;;;;9.27;4.23;;;6.70;99.90;;;;;;6068995;23;20444;-82
2021/03/15 15:24:28;;;;;;;17.57;5.83;;;6.80;99.90;;;;;;6067851;23;20456;-82
2021/03/15 15:27:01;;;;;;;10.00;3.90;;;6.90;99.90;;;;;;6068913;23;20411;-82
2021/03/15 15:29:31;;;;;;;12.10;4.73;;;6.90;99.90;;;;;;6078545;23;20476;-82
2021/03/15 15:35:48;;;;;;;15.40;5.13;;;7.00;99.90;;;;;;5933495;24;20933;-82
2021/03/15 15:38:23;;;;;;;16.43;5.03;;;7.10;99.90;;;;;;6033662;23;20449;-81
2021/03/15 15:40:54;;;;;;;92.13;76.33;;;7.00;99.90;;;;;;6073943;23;20420;-83
2021/03/15 15:43:24;;;;;;;37.00;34.40;;;6.00;99.90;;;;;;6066101;23;20437;-81
2021/03/15 15:45:53;;;;;;;11.93;10.93;;;5.80;99.90;;;;;;6075897;23;20440;-82
2021/03/15 15:48:20;;;;;;;19.47;18.27;;;5.80;99.90;;;;;;6096394;23;20512;-84
2021/03/15 15:50:48;;;;;;;15.50;14.40;;;5.50;99.90;;;;;;6065845;23;20411;-83
2021/03/15 15:53:14;;;;;;;19.70;18.50;;;5.50;99.90;;;;;;6073849;23;20798;-84
2021/03/15 15:55:41;;;;;;;24.27;22.97;;;5.70;99.90;;;;;;6075208;23;20444;-85
2021/03/15 15:58:07;;;;;;;22.53;21.23;;;5.90;99.90;;;;;;6065801;23;20405;-84
2021/03/15 16:00:36;;;;;;;26.00;24.60;;;5.70;99.90;;;;;;6075096;23;20527;-83
2021/03/15 16:03:05;;;;;;;25.40;24.00;;;5.80;99.90;;;;;;6074814;23;20971;-84
2021/03/15 16:05:33;;;;;;;22.93;21.63;;;5.70;99.90;;;;;;6075476;23;20413;-84
2021/03/15 16:07:59;;;;;;;21.13;19.93;;;5.90;99.90;;;;;;6065812;23;20416;-84
2021/03/15 16:10:26;;;;;;;18.77;17.57;;;5.70;99.90;;;;;;6064472;23;20404;-84
2021/03/15 16:12:52;;;;;;;18.63;17.43;;;5.80;99.90;;;;;;6066014;23;20409;-85
2021/03/15 16:15:19;;;;;;;19.10;17.90;;;6.00;99.90;;;;;;6066076;23;20931;-83
2021/03/15 16:17:46;;;;;;;20.80;19.60;;;5.80;99.90;;;;;;6066022;23;20480;-85
2021/03/15 16:20:14;;;;;;;17.53;16.43;;;5.90;99.90;;;;;;6075338;23;20416;-84
2021/03/15 16:22:40;;;;;;;19.90;18.70;;;6.00;99.90;;;;;;6074851;23;20444;-83
2021/03/15 16:25:08;;;;;;;24.63;23.23;;;6.10;99.90;;;;;;6064178;23;20880;-82
2021/03/15 16:27:35;;;;;;;27.00;25.57;;;6.40;99.90;;;;;;6074425;23;20911;-86
2021/03/15 16:30:09;;;;;;;28.30;26.80;;;6.50;99.90;;;;;;6074735;23;20464;-84
2021/03/15 16:32:37;;;;;;;30.87;29.27;;;6.10;99.90;;;;;;6074809;23;20417;-84
2021/03/15 16:35:05;;;;;;;27.43;25.90;;;6.00;99.90;;;;;;6065208;23;20401;-84
2021/03/15 16:37:32;;;;;;;24.97;23.57;;;5.80;99.90;;;;;;6075300;23;20413;-83
2021/03/15 16:39:59;;;;;;;23.03;21.73;;;5.90;99.90;;;;;;6064001;23;20439;-83
2021/03/15 16:42:27;;;;;;;24.50;23.13;;;6.10;99.90;;;;;;6065104;23;20778;-83
2021/03/15 16:44:54;;;;;;;29.17;27.67;;;6.40;99.90;;;;;;6074278;23;20420;-84
2021/03/15 16:47:20;;;;;;;29.47;27.93;;;6.50;99.90;;;;;;6073968;23;20447;-83
2021/03/15 16:49:51;;;;;;;30.43;28.83;;;6.60;99.90;;;;;;6064361;23;20445;-82
2021/03/15 16:52:18;;;;;;;29.80;28.30;;;6.20;99.90;;;;;;6074272;23;20428;-83
2021/03/15 16:54:52;;;;;;;32.07;30.47;;;6.20;99.90;;;;;;6063823;23;20405;-84
2021/03/15 16:57:19;;;;;;;26.23;24.83;;;6.20;99.90;;;;;;6064919;23;20401;-82
2021/03/15 16:59:46;;;;;;;26.23;24.83;;;6.00;99.90;;;;;;6064742;23;20492;-82
2021/03/15 17:02:12;;;;;;;25.47;24.07;;;6.00;99.90;;;;;;6069587;23;20436;-82
2021/03/15 17:04:39;;;;;;;22.33;21.03;;;6.00;99.90;;;;;;6064816;23;20453;-83
2021/03/15 17:07:06;;;;;;;22.80;21.50;;;5.90;99.90;;;;;;6064493;23;20405;-83
2021/03/15 17:09:34;;;;;;;21.33;20.03;;;6.00;99.90;;;;;;6075135;23;20938;-83
2021/03/15 17:12:00;;;;;;;22.27;20.97;;;5.90;99.90;;;;;;6076267;23;20447;-82
2021/03/15 17:14:41;;;;;;;20.60;19.40;;;5.70;99.90;;;;;;6065087;23;20404;-84
2021/03/15 17:17:17;;;;;;;19.37;18.17;;;5.70;99.90;;;;;;6064458;23;20432;-84
2021/03/15 17:20:01;;;;;;;19.53;18.23;;;5.70;99.90;;;;;;6065452;23;20891;-85
2021/03/15 17:22:30;;;;;;;15.40;14.40;;;5.60;99.90;;;;;;6070271;23;20527;-84
2021/03/15 17:25:00;;;;;;;17.57;16.47;;;5.60;99.90;;;;;;6074171;23;20458;-84
2021/03/15 17:27:29;;;;;;;16.10;15.00;;;5.70;99.90;;;;;;6076964;23;20428;-85
2021/03/15 17:29:57;;;;;;;15.30;14.30;;;5.90;99.90;;;;;;6067501;23;20416;-84
2021/03/15 17:32:32;;;;;;;15.57;14.57;;;6.00;99.90;;;;;;6005478;23;20873;-85
2021/03/15 17:38:09;;;;;;;18.40;17.30;;;6.00;99.90;;;;;;5945285;24;20428;-85
2021/03/15 17:40:56;;;;;;;;;;;;;;;;;;;;;
2021/03/15 17:43:39;;;;;;;18.83;17.73;;;6.10;99.90;;;;;;5963893;24;20438;-84
2021/03/15 17:46:21;;;;;;;17.83;16.73;;;6.00;99.90;;;;;;5963780;24;20451;-85
2021/03/15 17:49:15;;;;;;;17.80;16.70;;;5.90;99.90;;;;;;5963609;24;20448;-85
2021/03/15 17:54:51;;;;;;;17.70;16.60;;;5.90;99.90;;;;;;6009389;23;20873;-84
2021/03/15 18:31:08;;;;;;;16.00;15.00;;;5.40;99.90;;;;;;5707324;24;20428;-84
2021/03/15 18:37:16;;;;;;;;;;;;;;;;;;;;;
2021/03/15 18:52:37;;;;;;;15.63;14.63;;;5.50;99.90;;;;;;5657298;25;20981;-84
2021/03/15 18:55:44;;;;;;;15.80;14.80;;;5.50;99.90;;;;;;5773650;24;20588;-84
2021/03/15 19:02:33;;;;;;;;;;;;;;;;;;;;;
2021/03/15 19:05:33;;;;;;;;;;;;;;;;;;;;;
2021/03/15 19:09:00;;;;;;;;;;;;;;;;;;;;;
2021/03/15 20:08:56;;;;;;;22.37;21.17;;;5.60;99.90;;;;;;5695044;25;20430;-83
2021/03/15 20:11:46;;;;;;;23.00;21.80;;;5.50;99.90;;;;;;5780833;24;20519;-83
2021/03/15 20:14:36;;;;;;;;;;;;;;;;;;;;;
2021/03/15 20:17:47;;;;;;;;;;;;;;;;;;;;;
2021/03/15 20:23:55;;;;;;;31.20;29.70;;;5.20;99.90;;;;;;5976206;23;20766;-84
2021/03/15 20:26:25;;;;;;;30.50;29.00;;;5.20;99.90;;;;;;5974392;23;20420;-84
2021/03/15 20:32:09;;;;;;;23.20;22.00;;;5.00;99.90;;;;;;5972548;23;20454;-84
2021/03/15 20:37:50;;;;;;;24.87;23.57;;;5.00;99.90;;;;;;5979005;23;20423;-84
2021/03/15 20:40:49;;;;;;;23.63;22.43;;;5.00;99.90;;;;;;5977751;23;20430;-84
2021/03/15 20:49:47;;;;;;;26.30;25.00;;;5.10;99.90;;;;;;5823540;24;20470;-84
2021/03/15 20:52:31;;;;;;;;;;;;;;;;;;;;;
2021/03/15 20:55:09;;;;;;;29.20;27.80;;;5.20;99.90;;;;;;5875690;24;20490;-84
2021/03/15 20:57:36;;;;;;;29.90;28.40;;;5.20;99.90;;;;;;5917864;24;20431;-84
2021/03/15 21:00:53;;;;;;;29.33;27.93;;;5.20;99.90;;;;;;5954469;24;20408;-84
2021/03/15 21:03:40;;;;;;;32.13;30.20;;;5.10;99.90;;;;;;5844762;24;20447;-84
2021/03/15 21:06:35;;;;;;;30.40;28.90;;;5.00;99.90;;;;;;5906945;24;20416;-84
2021/03/15 21:09:15;;;;;;;;;;;;;;;;;;;;;
2021/03/15 21:15:05;;;;;;;29.73;28.33;;;5.10;99.90;;;;;;5988586;23;20426;-84
2021/03/15 21:20:59;;;;;;;;;;;;;;;;;;;;;
2021/03/15 21:24:05;;;;;;;28.97;27.57;;;5.10;99.90;;;;;;5983222;23;20533;-84
2021/03/15 21:26:44;;;;;;;28.50;27.10;;;4.90;99.90;;;;;;5984837;24;20479;-84
2021/03/15 21:29:16;;;;;;;31.73;30.03;;;5.00;99.90;;;;;;5994839;24;20422;-83
2021/03/15 21:31:50;;;;;;;31.50;30.00;;;5.20;99.90;;;;;;5984968;23;20403;-84
2021/03/15 21:34:32;;;;;;;29.83;28.40;;;5.20;99.90;;;;;;5984424;24;20920;-84
2021/03/15 21:37:49;;;;;;;31.80;30.30;;;5.10;99.90;;;;;;5993716;24;20407;-84
2021/03/15 21:40:41;;;;;;;31.40;29.90;;;5.20;99.90;;;;;;5983671;24;20891;-84
2021/03/15 21:43:11;;;;;;;30.17;28.73;;;5.10;99.90;;;;;;5984038;24;20848;-84
2021/03/15 21:46:16;;;;;;;31.43;29.93;;;5.10;99.90;;;;;;5984651;24;20407;-84
2021/03/15 21:52:02;;;;;;;32.60;31.10;;;5.00;99.90;;;;;;5984429;23;20420;-84
2021/03/15 21:54:34;;;;;;;33.10;31.60;;;5.00;99.90;;;;;;5983297;24;20415;-84
2021/03/15 21:57:40;;;;;;;;;;;;;;;;;;;;;
2021/03/15 22:00:45;;;;;;;;;;;;;;;;;;;;;
2021/03/15 22:06:24;;;;;;;32.00;30.50;;;5.40;99.90;;;;;;5944846;24;20506;-84
2021/03/15 22:08:57;;;;;;;33.73;32.13;;;5.50;99.90;;;;;;5982845;24;20407;-84
2021/03/15 22:11:28;;;;;;;35.40;33.80;;;5.40;99.90;;;;;;5993744;24;20423;-84
2021/03/15 22:14:34;;;;;;;36.07;34.47;;;5.40;99.90;;;;;;5993476;23;20427;-84
2021/03/15 22:17:34;;;;;;;;;;;;;;;;;;;;;
2021/03/15 22:20:20;;;;;;;35.23;33.63;;;5.30;99.90;;;;;;5935177;24;20500;-84
2021/03/15 22:22:48;;;;;;;36.80;35.10;;;5.30;99.90;;;;;;5959959;23;20454;-83
2021/03/15 22:25:17;;;;;;;35.90;34.30;;;5.40;99.90;;;;;;5991784;24;20423;-83
2021/03/15 22:28:10;;;;;;;34.03;32.43;;;5.30;99.90;;;;;;5983959;23;20440;-83
2021/03/15 22:30:42;;;;;;;35.03;33.43;;;5.40;99.90;;;;;;5982781;23;20502;-83
2021/03/15 22:33:32;;;;;;;;;;;;;;;;;;;;;
2021/03/15 22:36:02;;;;;;;32.50;31.00;;;5.40;99.90;;;;;;5983792;23;20419;-83
2021/03/15 22:38:34;;;;;;;33.80;32.20;;;5.50;99.90;;;;;;5982949;24;20723;-83
2021/03/15 22:41:09;;;;;;;36.10;34.50;;;5.50;99.90;;;;;;5993428;24;20439;-83
2021/03/15 22:43:38;;;;;;;33.50;31.90;;;5.50;99.90;;;;;;5983515;24;20459;-83
2021/03/15 22:46:10;;;;;;;35.47;33.87;;;5.50;99.90;;;;;;5984205;24;20416;-83
2021/03/15 22:48:40;;;;;;;34.00;32.40;;;5.60;99.90;;;;;;5983808;24;20472;-83
2021/03/15 22:51:10;;;;;;;33.80;32.20;;;5.50;99.90;;;;;;5994838;24;20415;-83
2021/03/15 22:53:36;;;;;;;31.87;30.37;;;5.60;99.90;;;;;;5991679;24;20443;-83
2021/03/15 22:56:03;;;;;;;33.13;31.60;;;5.60;99.90;;;;;;5983676;23;20917;-83
2021/03/15 22:58:33;;;;;;;34.10;32.50;;;5.50;99.90;;;;;;5983789;24;21016;-82
2021/03/15 23:01:05;;;;;;;34.10;32.50;;;5.50;99.90;;;;;;5995471;24;20494;-83
2021/03/15 23:03:32;;;;;;;34.37;32.77;;;5.40;99.90;;;;;;5993175;24;20446;-83
2021/03/15 23:06:05;;;;;;;37.13;35.43;;;5.50;99.90;;;;;;5993271;24;20470;-83
2021/03/15 23:08:35;;;;;;;38.00;36.30;;;5.30;99.90;;;;;;5991439;24;20423;-82
2021/03/15 23:11:03;;;;;;;39.00;37.27;;;5.30;99.90;;;;;;5984530;24;20415;-82
2021/03/15 23:13:29;;;;;;;38.70;37.00;;;5.20;99.90;;;;;;5983536;24;20885;-82
2021/03/15 23:15:56;;;;;;;40.67;38.87;;;5.30;99.90;;;;;;5983961;24;20412;-83
2021/03/15 23:18:31;;;;;;;39.37;37.60;;;5.40;99.90;;;;;;5993174;24;20426;-83
2021/03/15 23:20:57;;;;;;;40.90;39.10;;;5.30;99.90;;;;;;5994385;24;20479;-83
2021/03/15 23:23:34;;;;;;;41.43;39.63;;;5.30;99.90;;;;;;5991474;24;20451;-83
2021/03/15 23:26:07;;;;;;;42.60;40.70;;;5.40;99.90;;;;;;5993289;24;20454;-83
2021/03/15 23:29:22;;;;;;;;;;;;;;;;;;;;;
2021/03/15 23:32:01;;;;;;;42.90;41.00;;;5.40;99.90;;;;;;5986260;23;20424;-83
2021/03/15 23:34:32;;;;;;;40.90;39.10;;;5.30;99.90;;;;;;5983785;24;20418;-83
2021/03/15 23:37:01;;;;;;;39.13;37.43;;;5.40;99.90;;;;;;5983696;24;20793;-83
2021/03/15 23:39:33;;;;;;;40.70;38.90;;;5.30;99.90;;;;;;5982377;23;20460;-83
2021/03/15 23:42:04;;;;;;;41.00;39.20;;;5.30;99.90;;;;;;5993004;24;20781;-83
2021/03/15 23:44:44;;;;;;;39.83;38.07;;;5.30;99.90;;;;;;5983631;24;20497;-83
2021/03/15 23:47:18;;;;;;;40.77;38.97;;;5.30;99.90;;;;;;5983580;24;20439;-83
2021/03/15 23:50:30;;;;;;;42.50;40.60;;;5.30;99.90;;;;;;5943644;24;20422;-83
2021/03/15 23:53:01;;;;;;;40.10;38.30;;;5.30;99.90;;;;;;5933973;24;20456;-84
2021/03/15 23:55:59;;;;;;;40.27;38.47;;;5.40;99.90;;;;;;5980937;23;20418;-83
2021/03/15 23:58:27;;;;;;;41.47;39.67;;;5.50;99.90;;;;;;5992859;23;20417;-83
